sensor_id;sensor_type;location;lat;lon;timestamp;P1;durP1;ratioP1;P2;durP2;ratioP2
5710;SDS011;61291;52.524;13.422;2023-05-08T00:01:30;65.40;;;61.20;;
5710;SDS011;61291;52.524;13.422;2023-05-08T00:03:56;65.20;;;60.73;;
5710;SDS011;61291;52.524;13.422;2023-05-08T00:06:21;67.20;;;62.90;;
5710;SDS011;61291;52.524;13.422;2023-05-08T00:08:47;66.80;;;61.93;;
5710;SDS011;61291;52.524;13.422;2023-05-08T00:11:12;65.67;;;61.57;;
5710;SDS011;61291;52.524;13.422;2023-05-08T00:13:38;65.67;;;61.37;;
5710;SDS011;61291;52.524;13.422;2023-05-08T00:16:05;65.43;;;61.40;;
5710;SDS011;61291;52.524;13.422;2023-05-08T00:18:33;65.40;;;61.20;;
5710;SDS011;61291;52.524;13.422;2023-05-08T00:20:59;65.07;;;60.80;;
5710;SDS011;61291;52.524;13.422;2023-05-08T00:23:25;63.90;;;59.80;;
5710;SDS011;61291;52.524;13.422;2023-05-08T00:25:51;66.50;;;62.10;;
5710;SDS011;61291;52.524;13.422;2023-05-08T00:28:16;66.50;;;62.40;;
5710;SDS011;61291;52.524;13.422;2023-05-08T00:30:42;65.40;;;61.30;;
5710;SDS011;61291;52.524;13.422;2023-05-08T00:33:07;64.70;;;60.27;;
5710;SDS011;61291;52.524;13.422;2023-05-08T00:35:33;69.23;;;64.50;;
5710;SDS011;61291;52.524;13.422;2023-05-08T00:37:59;68.70;;;64.10;;
5710;SDS011;61291;52.524;13.422;2023-05-08T00:40:25;67.50;;;62.87;;
5710;SDS011;61291;52.524;13.422;2023-05-08T00:42:50;68.63;;;64.03;;
5710;SDS011;61291;52.524;13.422;2023-05-08T00:45:16;64.40;;;60.30;;
5710;SDS011;61291;52.524;13.422;2023-05-08T00:47:42;65.27;;;61.00;;
5710;SDS011;61291;52.524;13.422;2023-05-08T00:50:08;64.30;;;59.93;;
5710;SDS011;61291;52.524;13.422;2023-05-08T00:52:34;66.60;;;61.55;;
5710;SDS011;61291;52.524;13.422;2023-05-08T00:55:01;63.77;;;59.67;;
5710;SDS011;61291;52.524;13.422;2023-05-08T00:57:28;66.67;;;62.37;;
5710;SDS011;61291;52.524;13.422;2023-05-08T00:59:57;66.97;;;62.63;;
5710;SDS011;61291;52.524;13.422;2023-05-08T01:02:24;67.87;;;63.40;;
5710;SDS011;61291;52.524;13.422;2023-05-08T01:04:50;69.20;;;64.50;;
5710;SDS011;61291;52.524;13.422;2023-05-08T01:07:17;65.83;;;61.30;;
5710;SDS011;61291;52.524;13.422;2023-05-08T01:09:43;69.33;;;64.83;;
5710;SDS011;61291;52.524;13.422;2023-05-08T01:12:11;67.80;;;63.40;;
5710;SDS011;61291;52.524;13.422;2023-05-08T01:14:53;69.23;;;64.73;;
5710;SDS011;61291;52.524;13.422;2023-05-08T01:17:45;69.60;;;65.00;;
5710;SDS011;61291;52.524;13.422;2023-05-08T01:26:08;66.80;;;62.40;;
5710;SDS011;61291;52.524;13.422;2023-05-08T01:34:45;66.20;;;61.97;;
5710;SDS011;61291;52.524;13.422;2023-05-08T01:37:33;65.50;;;61.03;;
5710;SDS011;61291;52.524;13.422;2023-05-08T01:40:33;62.83;;;58.63;;
5710;SDS011;61291;52.524;13.422;2023-05-08T01:44:14;63.90;;;59.80;;
5710;SDS011;61291;52.524;13.422;2023-05-08T01:46:26;67.10;;;62.83;;
5710;SDS011;61291;52.524;13.422;2023-05-08T01:48:58;64.10;;;60.00;;
5710;SDS011;61291;52.524;13.422;2023-05-08T01:51:45;68.00;;;62.70;;
5710;SDS011;61291;52.524;13.422;2023-05-08T01:54:18;65.07;;;60.77;;
5710;SDS011;61291;52.524;13.422;2023-05-08T01:56:46;67.80;;;62.07;;
5710;SDS011;61291;52.524;13.422;2023-05-08T01:59:15;70.77;;;66.17;;
5710;SDS011;61291;52.524;13.422;2023-05-08T02:01:43;66.13;;;61.60;;
5710;SDS011;61291;52.524;13.422;2023-05-08T02:04:10;65.57;;;61.27;;
5710;SDS011;61291;52.524;13.422;2023-05-08T02:06:38;65.97;;;61.77;;
5710;SDS011;61291;52.524;13.422;2023-05-08T02:09:05;65.50;;;61.00;;
5710;SDS011;61291;52.524;13.422;2023-05-08T02:11:32;64.57;;;60.37;;
5710;SDS011;61291;52.524;13.422;2023-05-08T02:14:00;61.83;;;57.83;;
5710;SDS011;61291;52.524;13.422;2023-05-08T02:16:27;66.63;;;62.30;;
5710;SDS011;61291;52.524;13.422;2023-05-08T02:18:53;66.03;;;61.63;;
5710;SDS011;61291;52.524;13.422;2023-05-08T02:21:21;68.33;;;63.70;;
5710;SDS011;61291;52.524;13.422;2023-05-08T02:23:48;69.87;;;65.27;;
5710;SDS011;61291;52.524;13.422;2023-05-08T02:26:15;66.93;;;62.13;;
5710;SDS011;61291;52.524;13.422;2023-05-08T02:28:41;69.23;;;64.33;;
5710;SDS011;61291;52.524;13.422;2023-05-08T02:31:11;68.27;;;63.53;;
5710;SDS011;61291;52.524;13.422;2023-05-08T02:33:37;67.47;;;62.93;;
5710;SDS011;61291;52.524;13.422;2023-05-08T02:36:05;66.20;;;61.80;;
5710;SDS011;61291;52.524;13.422;2023-05-08T02:38:31;65.47;;;61.10;;
5710;SDS011;61291;52.524;13.422;2023-05-08T02:40:59;65.07;;;60.87;;
5710;SDS011;61291;52.524;13.422;2023-05-08T02:43:27;65.70;;;60.77;;
5710;SDS011;61291;52.524;13.422;2023-05-08T02:45:58;71.03;;;66.43;;
5710;SDS011;61291;52.524;13.422;2023-05-08T02:48:43;70.60;;;65.97;;
5710;SDS011;61291;52.524;13.422;2023-05-08T02:51:24;67.27;;;63.00;;
5710;SDS011;61291;52.524;13.422;2023-05-08T02:54:09;66.70;;;62.30;;
5710;SDS011;61291;52.524;13.422;2023-05-08T02:56:39;67.10;;;62.77;;
5710;SDS011;61291;52.524;13.422;2023-05-08T02:59:16;66.30;;;61.90;;
5710;SDS011;61291;52.524;13.422;2023-05-08T03:01:53;66.97;;;62.10;;
5710;SDS011;61291;52.524;13.422;2023-05-08T03:04:33;66.97;;;62.40;;
5710;SDS011;61291;52.524;13.422;2023-05-08T03:07:03;67.63;;;63.03;;
5710;SDS011;61291;52.524;13.422;2023-05-08T03:09:33;60.50;;;56.70;;
5710;SDS011;61291;52.524;13.422;2023-05-08T03:12:06;63.23;;;59.10;;
5710;SDS011;61291;52.524;13.422;2023-05-08T03:14:38;63.80;;;59.70;;
5710;SDS011;61291;52.524;13.422;2023-05-08T03:17:15;66.37;;;61.93;;
5710;SDS011;61291;52.524;13.422;2023-05-08T03:19:43;65.83;;;61.47;;
5710;SDS011;61291;52.524;13.422;2023-05-08T03:22:14;66.43;;;61.60;;
5710;SDS011;61291;52.524;13.422;2023-05-08T03:24:40;64.90;;;60.60;;
5710;SDS011;61291;52.524;13.422;2023-05-08T03:27:08;70.93;;;66.33;;
5710;SDS011;61291;52.524;13.422;2023-05-08T03:29:34;68.33;;;63.73;;
5710;SDS011;61291;52.524;13.422;2023-05-08T03:32:02;67.93;;;63.33;;
5710;SDS011;61291;52.524;13.422;2023-05-08T03:34:28;67.17;;;62.07;;
5710;SDS011;61291;52.524;13.422;2023-05-08T03:36:54;64.60;;;60.10;;
5710;SDS011;61291;52.524;13.422;2023-05-08T03:39:20;68.40;;;63.50;;
5710;SDS011;61291;52.524;13.422;2023-05-08T03:41:46;72.77;;;67.97;;
5710;SDS011;61291;52.524;13.422;2023-05-08T03:44:13;65.07;;;60.00;;
5710;SDS011;61291;52.524;13.422;2023-05-08T03:46:40;65.50;;;61.10;;
5710;SDS011;61291;52.524;13.422;2023-05-08T03:49:06;66.93;;;62.47;;
5710;SDS011;61291;52.524;13.422;2023-05-08T03:51:32;68.00;;;63.00;;
5710;SDS011;61291;52.524;13.422;2023-05-08T03:54:02;66.33;;;61.73;;
5710;SDS011;61291;52.524;13.422;2023-05-08T03:56:28;68.07;;;63.40;;
5710;SDS011;61291;52.524;13.422;2023-05-08T03:58:55;66.50;;;61.63;;
5710;SDS011;61291;52.524;13.422;2023-05-08T04:01:24;68.10;;;63.50;;
5710;SDS011;61291;52.524;13.422;2023-05-08T04:04:02;65.80;;;61.20;;
5710;SDS011;61291;52.524;13.422;2023-05-08T04:06:39;67.83;;;63.00;;
5710;SDS011;61291;52.524;13.422;2023-05-08T04:09:12;71.40;;;65.87;;
5710;SDS011;61291;52.524;13.422;2023-05-08T04:11:48;66.43;;;62.00;;
5710;SDS011;61291;52.524;13.422;2023-05-08T04:14:29;64.13;;;59.83;;
5710;SDS011;61291;52.524;13.422;2023-05-08T04:16:59;61.13;;;56.90;;
5710;SDS011;61291;52.524;13.422;2023-05-08T04:19:28;67.83;;;63.23;;
5710;SDS011;61291;52.524;13.422;2023-05-08T04:21:58;66.67;;;61.93;;
5710;SDS011;61291;52.524;13.422;2023-05-08T04:24:29;71.47;;;66.47;;
5710;SDS011;61291;52.524;13.422;2023-05-08T04:26:57;67.27;;;62.57;;
5710;SDS011;61291;52.524;13.422;2023-05-08T04:29:24;67.30;;;62.50;;
5710;SDS011;61291;52.524;13.422;2023-05-08T04:31:50;63.53;;;59.27;;
5710;SDS011;61291;52.524;13.422;2023-05-08T04:34:15;64.30;;;59.90;;
5710;SDS011;61291;52.524;13.422;2023-05-08T04:36:41;58.72;;;54.45;;
5710;SDS011;61291;52.524;13.422;2023-05-08T04:39:07;69.37;;;64.27;;
5710;SDS011;61291;52.524;13.422;2023-05-08T04:41:32;61.90;;;57.57;;
5710;SDS011;61291;52.524;13.422;2023-05-08T04:43:59;64.63;;;60.33;;
5710;SDS011;61291;52.524;13.422;2023-05-08T04:46:25;67.63;;;63.03;;
5710;SDS011;61291;52.524;13.422;2023-05-08T04:48:50;65.93;;;61.20;;
5710;SDS011;61291;52.524;13.422;2023-05-08T04:51:16;66.37;;;61.67;;
5710;SDS011;61291;52.524;13.422;2023-05-08T04:53:42;63.53;;;58.90;;
5710;SDS011;61291;52.524;13.422;2023-05-08T04:56:07;66.70;;;62.33;;
5710;SDS011;61291;52.524;13.422;2023-05-08T04:58:33;61.27;;;56.73;;
5710;SDS011;61291;52.524;13.422;2023-05-08T05:01:02;66.20;;;61.67;;
5710;SDS011;61291;52.524;13.422;2023-05-08T05:03:28;63.57;;;59.03;;
5710;SDS011;61291;52.524;13.422;2023-05-08T05:05:57;68.70;;;63.07;;
5710;SDS011;61291;52.524;13.422;2023-05-08T05:08:23;51.65;;;47.97;;
5710;SDS011;61291;52.524;13.422;2023-05-08T05:10:49;67.27;;;62.37;;
5710;SDS011;61291;52.524;13.422;2023-05-08T05:13:14;63.87;;;59.60;;
5710;SDS011;61291;52.524;13.422;2023-05-08T05:15:43;63.00;;;58.53;;
5710;SDS011;61291;52.524;13.422;2023-05-08T05:18:09;69.40;;;64.43;;
5710;SDS011;61291;52.524;13.422;2023-05-08T05:20:34;65.33;;;59.83;;
5710;SDS011;61291;52.524;13.422;2023-05-08T05:23:00;68.30;;;63.70;;
5710;SDS011;61291;52.524;13.422;2023-05-08T05:25:25;68.87;;;63.80;;
5710;SDS011;61291;52.524;13.422;2023-05-08T05:27:51;66.33;;;62.03;;
5710;SDS011;61291;52.524;13.422;2023-05-08T05:30:16;64.13;;;60.03;;
5710;SDS011;61291;52.524;13.422;2023-05-08T05:32:42;67.43;;;62.70;;
5710;SDS011;61291;52.524;13.422;2023-05-08T05:35:08;67.20;;;62.70;;
5710;SDS011;61291;52.524;13.422;2023-05-08T05:37:34;66.80;;;62.23;;
5710;SDS011;61291;52.524;13.422;2023-05-08T05:39:59;66.13;;;61.33;;
5710;SDS011;61291;52.524;13.422;2023-05-08T05:42:25;66.67;;;61.83;;
5710;SDS011;61291;52.524;13.422;2023-05-08T05:44:50;65.57;;;60.97;;
5710;SDS011;61291;52.524;13.422;2023-05-08T05:47:16;75.23;;;69.47;;
5710;SDS011;61291;52.524;13.422;2023-05-08T05:49:41;71.27;;;66.37;;
5710;SDS011;61291;52.524;13.422;2023-05-08T05:52:10;69.03;;;64.20;;
5710;SDS011;61291;52.524;13.422;2023-05-08T05:54:36;71.43;;;66.37;;
5710;SDS011;61291;52.524;13.422;2023-05-08T05:57:02;67.60;;;62.67;;
5710;SDS011;61291;52.524;13.422;2023-05-08T05:59:28;68.80;;;64.07;;
5710;SDS011;61291;52.524;13.422;2023-05-08T06:01:53;72.23;;;67.17;;
5710;SDS011;61291;52.524;13.422;2023-05-08T06:04:19;76.13;;;71.10;;
5710;SDS011;61291;52.524;13.422;2023-05-08T06:06:44;67.50;;;62.90;;
5710;SDS011;61291;52.524;13.422;2023-05-08T06:09:10;67.17;;;62.73;;
5710;SDS011;61291;52.524;13.422;2023-05-08T06:11:36;68.07;;;63.47;;
5710;SDS011;61291;52.524;13.422;2023-05-08T06:14:01;71.97;;;67.07;;
5710;SDS011;61291;52.524;13.422;2023-05-08T06:16:27;67.50;;;62.07;;
5710;SDS011;61291;52.524;13.422;2023-05-08T06:18:54;66.40;;;61.90;;
5710;SDS011;61291;52.524;13.422;2023-05-08T06:21:19;63.27;;;58.97;;
5710;SDS011;61291;52.524;13.422;2023-05-08T06:23:45;63.83;;;59.20;;
5710;SDS011;61291;52.524;13.422;2023-05-08T06:26:10;68.40;;;63.50;;
5710;SDS011;61291;52.524;13.422;2023-05-08T06:28:36;65.40;;;60.60;;
5710;SDS011;61291;52.524;13.422;2023-05-08T06:31:01;64.70;;;60.20;;
5710;SDS011;61291;52.524;13.422;2023-05-08T06:33:27;66.87;;;62.17;;
5710;SDS011;61291;52.524;13.422;2023-05-08T06:35:53;72.70;;;67.70;;
5710;SDS011;61291;52.524;13.422;2023-05-08T06:38:19;70.63;;;65.57;;
5710;SDS011;61291;52.524;13.422;2023-05-08T06:40:45;73.97;;;68.87;;
5710;SDS011;61291;52.524;13.422;2023-05-08T06:43:11;75.03;;;69.83;;
5710;SDS011;61291;52.524;13.422;2023-05-08T06:45:37;73.43;;;68.33;;
5710;SDS011;61291;52.524;13.422;2023-05-08T06:48:03;78.93;;;73.57;;
5710;SDS011;61291;52.524;13.422;2023-05-08T06:50:29;72.10;;;67.17;;
5710;SDS011;61291;52.524;13.422;2023-05-08T06:52:55;87.47;;;81.47;;
5710;SDS011;61291;52.524;13.422;2023-05-08T06:55:20;74.47;;;68.00;;
5710;SDS011;61291;52.524;13.422;2023-05-08T06:57:46;74.43;;;69.17;;
5710;SDS011;61291;52.524;13.422;2023-05-08T07:00:11;74.23;;;69.20;;
5710;SDS011;61291;52.524;13.422;2023-05-08T07:02:37;74.80;;;69.50;;
5710;SDS011;61291;52.524;13.422;2023-05-08T07:05:03;76.67;;;71.47;;
5710;SDS011;61291;52.524;13.422;2023-05-08T07:07:28;79.90;;;73.63;;
5710;SDS011;61291;52.524;13.422;2023-05-08T07:09:54;77.03;;;71.63;;
5710;SDS011;61291;52.524;13.422;2023-05-08T07:12:19;78.20;;;72.80;;
5710;SDS011;61291;52.524;13.422;2023-05-08T07:14:45;82.07;;;76.30;;
5710;SDS011;61291;52.524;13.422;2023-05-08T07:17:10;78.67;;;72.77;;
5710;SDS011;61291;52.524;13.422;2023-05-08T07:19:36;77.70;;;72.10;;
5710;SDS011;61291;52.524;13.422;2023-05-08T07:22:02;82.50;;;76.93;;
5710;SDS011;61291;52.524;13.422;2023-05-08T07:24:28;81.10;;;75.40;;
5710;SDS011;61291;52.524;13.422;2023-05-08T07:26:54;79.13;;;73.63;;
5710;SDS011;61291;52.524;13.422;2023-05-08T07:29:19;81.60;;;75.90;;
5710;SDS011;61291;52.524;13.422;2023-05-08T07:31:45;81.07;;;75.47;;
5710;SDS011;61291;52.524;13.422;2023-05-08T07:34:12;79.13;;;73.73;;
5710;SDS011;61291;52.524;13.422;2023-05-08T07:36:38;72.88;;;67.68;;
5710;SDS011;61291;52.524;13.422;2023-05-08T07:39:04;79.43;;;73.67;;
5710;SDS011;61291;52.524;13.422;2023-05-08T07:41:29;81.70;;;75.27;;
5710;SDS011;61291;52.524;13.422;2023-05-08T07:43:55;84.47;;;77.73;;
5710;SDS011;61291;52.524;13.422;2023-05-08T07:46:20;81.00;;;75.20;;
5710;SDS011;61291;52.524;13.422;2023-05-08T07:48:46;80.00;;;74.60;;
5710;SDS011;61291;52.524;13.422;2023-05-08T07:51:12;77.70;;;72.07;;
5710;SDS011;61291;52.524;13.422;2023-05-08T07:53:38;85.00;;;79.30;;
5710;SDS011;61291;52.524;13.422;2023-05-08T07:56:04;81.17;;;74.60;;
5710;SDS011;61291;52.524;13.422;2023-05-08T07:58:30;79.57;;;73.60;;
5710;SDS011;61291;52.524;13.422;2023-05-08T08:00:55;80.47;;;74.33;;
5710;SDS011;61291;52.524;13.422;2023-05-08T08:03:21;78.17;;;72.67;;
5710;SDS011;61291;52.524;13.422;2023-05-08T08:05:46;82.80;;;76.90;;
5710;SDS011;61291;52.524;13.422;2023-05-08T08:08:12;80.10;;;74.80;;
5710;SDS011;61291;52.524;13.422;2023-05-08T08:10:37;84.60;;;79.03;;
5710;SDS011;61291;52.524;13.422;2023-05-08T08:13:03;91.17;;;85.10;;
5710;SDS011;61291;52.524;13.422;2023-05-08T08:15:29;76.78;;;71.50;;
5710;SDS011;61291;52.524;13.422;2023-05-08T08:17:55;86.37;;;80.30;;
5710;SDS011;61291;52.524;13.422;2023-05-08T08:20:20;87.20;;;80.33;;
5710;SDS011;61291;52.524;13.422;2023-05-08T08:22:46;89.40;;;83.00;;
5710;SDS011;61291;52.524;13.422;2023-05-08T08:25:11;88.17;;;81.93;;
5710;SDS011;61291;52.524;13.422;2023-05-08T08:27:37;84.10;;;78.00;;
5710;SDS011;61291;52.524;13.422;2023-05-08T08:30:03;85.60;;;79.70;;
5710;SDS011;61291;52.524;13.422;2023-05-08T08:32:29;86.77;;;79.83;;
5710;SDS011;61291;52.524;13.422;2023-05-08T08:34:55;83.23;;;77.67;;
5710;SDS011;61291;52.524;13.422;2023-05-08T08:37:20;81.57;;;75.27;;
5710;SDS011;61291;52.524;13.422;2023-05-08T08:39:46;86.73;;;80.80;;
5710;SDS011;61291;52.524;13.422;2023-05-08T08:42:12;86.50;;;80.60;;
5710;SDS011;61291;52.524;13.422;2023-05-08T08:44:38;88.90;;;82.23;;
5710;SDS011;61291;52.524;13.422;2023-05-08T08:47:03;85.23;;;78.70;;
5710;SDS011;61291;52.524;13.422;2023-05-08T08:49:30;84.37;;;78.67;;
5710;SDS011;61291;52.524;13.422;2023-05-08T08:52:04;87.00;;;80.93;;
5710;SDS011;61291;52.524;13.422;2023-05-08T08:54:33;87.03;;;81.07;;
5710;SDS011;61291;52.524;13.422;2023-05-08T08:57:00;89.00;;;83.13;;
5710;SDS011;61291;52.524;13.422;2023-05-08T08:59:31;80.23;;;74.30;;
5710;SDS011;61291;52.524;13.422;2023-05-08T09:01:57;86.00;;;80.10;;
5710;SDS011;61291;52.524;13.422;2023-05-08T09:04:28;83.80;;;78.20;;
5710;SDS011;61291;52.524;13.422;2023-05-08T09:06:55;87.20;;;81.13;;
5710;SDS011;61291;52.524;13.422;2023-05-08T09:09:22;85.73;;;80.03;;
5710;SDS011;61291;52.524;13.422;2023-05-08T09:11:47;85.30;;;79.70;;
5710;SDS011;61291;52.524;13.422;2023-05-08T09:14:13;91.70;;;85.37;;
5710;SDS011;61291;52.524;13.422;2023-05-08T09:16:38;89.80;;;83.80;;
5710;SDS011;61291;52.524;13.422;2023-05-08T09:19:04;87.40;;;81.43;;
5710;SDS011;61291;52.524;13.422;2023-05-08T09:21:29;90.37;;;81.60;;
5710;SDS011;61291;52.524;13.422;2023-05-08T09:24:00;91.50;;;85.30;;
5710;SDS011;61291;52.524;13.422;2023-05-08T09:26:27;93.60;;;87.13;;
5710;SDS011;61291;52.524;13.422;2023-05-08T09:29:12;91.73;;;85.80;;
5710;SDS011;61291;52.524;13.422;2023-05-08T09:31:46;68.97;;;63.97;;
5710;SDS011;61291;52.524;13.422;2023-05-08T09:34:26;89.53;;;83.63;;
5710;SDS011;61291;52.524;13.422;2023-05-08T09:36:54;84.80;;;79.00;;
5710;SDS011;61291;52.524;13.422;2023-05-08T09:39:21;85.80;;;79.80;;
5710;SDS011;61291;52.524;13.422;2023-05-08T09:44:23;90.00;;;84.10;;
5710;SDS011;61291;52.524;13.422;2023-05-08T09:46:48;87.20;;;81.20;;
5710;SDS011;61291;52.524;13.422;2023-05-08T09:49:15;84.43;;;78.73;;
5710;SDS011;61291;52.524;13.422;2023-05-08T09:51:50;88.67;;;82.73;;
5710;SDS011;61291;52.524;13.422;2023-05-08T09:54:17;86.93;;;81.03;;
5710;SDS011;61291;52.524;13.422;2023-05-08T09:56:43;87.77;;;81.47;;
5710;SDS011;61291;52.524;13.422;2023-05-08T09:59:22;83.73;;;78.00;;
5710;SDS011;61291;52.524;13.422;2023-05-08T10:01:48;93.00;;;85.87;;
5710;SDS011;61291;52.524;13.422;2023-05-08T10:04:13;86.00;;;80.40;;
5710;SDS011;61291;52.524;13.422;2023-05-08T10:06:39;89.40;;;83.40;;
5710;SDS011;61291;52.524;13.422;2023-05-08T10:09:11;89.47;;;83.27;;
5710;SDS011;61291;52.524;13.422;2023-05-08T10:11:38;88.20;;;82.20;;
5710;SDS011;61291;52.524;13.422;2023-05-08T10:14:05;94.60;;;88.37;;
5710;SDS011;61291;52.524;13.422;2023-05-08T10:16:31;83.43;;;77.40;;
5710;SDS011;61291;52.524;13.422;2023-05-08T10:19:03;86.27;;;80.17;;
5710;SDS011;61291;52.524;13.422;2023-05-08T10:21:34;81.87;;;76.03;;
5710;SDS011;61291;52.524;13.422;2023-05-08T10:24:03;82.00;;;76.33;;
5710;SDS011;61291;52.524;13.422;2023-05-08T10:26:30;81.10;;;75.20;;
5710;SDS011;61291;52.524;13.422;2023-05-08T10:28:58;81.00;;;75.20;;
5710;SDS011;61291;52.524;13.422;2023-05-08T10:31:33;77.97;;;72.77;;
5710;SDS011;61291;52.524;13.422;2023-05-08T10:34:00;83.67;;;78.03;;
5710;SDS011;61291;52.524;13.422;2023-05-08T10:36:27;75.80;;;70.20;;
5710;SDS011;61291;52.524;13.422;2023-05-08T10:38:56;75.93;;;70.77;;
5710;SDS011;61291;52.524;13.422;2023-05-08T10:41:23;75.77;;;70.57;;
5710;SDS011;61291;52.524;13.422;2023-05-08T10:43:49;79.17;;;73.37;;
5710;SDS011;61291;52.524;13.422;2023-05-08T10:49:21;80.60;;;75.23;;
5710;SDS011;61291;52.524;13.422;2023-05-08T10:52:15;78.87;;;72.30;;
5710;SDS011;61291;52.524;13.422;2023-05-08T10:57:23;64.85;;;60.25;;
5710;SDS011;61291;52.524;13.422;2023-05-08T10:59:48;77.67;;;72.37;;
5710;SDS011;61291;52.524;13.422;2023-05-08T11:02:14;74.80;;;69.53;;
5710;SDS011;61291;52.524;13.422;2023-05-08T11:04:40;75.57;;;69.63;;
5710;SDS011;61291;52.524;13.422;2023-05-08T11:07:07;77.50;;;72.40;;
5710;SDS011;61291;52.524;13.422;2023-05-08T11:09:44;79.37;;;73.87;;
5710;SDS011;61291;52.524;13.422;2023-05-08T11:12:24;77.83;;;72.10;;
5710;SDS011;61291;52.524;13.422;2023-05-08T11:14:54;79.60;;;74.03;;
5710;SDS011;61291;52.524;13.422;2023-05-08T11:17:23;78.80;;;73.30;;
5710;SDS011;61291;52.524;13.422;2023-05-08T11:19:59;75.20;;;69.90;;
5710;SDS011;61291;52.524;13.422;2023-05-08T11:22:26;77.17;;;71.77;;
5710;SDS011;61291;52.524;13.422;2023-05-08T11:25:06;78.97;;;73.53;;
5710;SDS011;61291;52.524;13.422;2023-05-08T11:30:22;72.50;;;67.50;;
5710;SDS011;61291;52.524;13.422;2023-05-08T11:35:43;78.37;;;72.87;;
5710;SDS011;61291;52.524;13.422;2023-05-08T11:38:32;79.37;;;74.07;;
5710;SDS011;61291;52.524;13.422;2023-05-08T11:41:03;82.47;;;76.37;;
5710;SDS011;61291;52.524;13.422;2023-05-08T11:43:40;79.73;;;74.10;;
5710;SDS011;61291;52.524;13.422;2023-05-08T11:46:14;86.87;;;81.00;;
5710;SDS011;61291;52.524;13.422;2023-05-08T11:48:43;81.70;;;75.83;;
5710;SDS011;61291;52.524;13.422;2023-05-08T11:51:08;79.43;;;73.93;;
5710;SDS011;61291;52.524;13.422;2023-05-08T11:53:35;82.77;;;77.07;;
5710;SDS011;61291;52.524;13.422;2023-05-08T11:56:01;88.37;;;82.40;;
5710;SDS011;61291;52.524;13.422;2023-05-08T11:58:27;81.63;;;76.17;;
5710;SDS011;61291;52.524;13.422;2023-05-08T12:00:53;76.80;;;71.23;;
5710;SDS011;61291;52.524;13.422;2023-05-08T12:03:22;85.40;;;79.57;;
5710;SDS011;61291;52.524;13.422;2023-05-08T12:05:54;80.60;;;74.70;;
5710;SDS011;61291;52.524;13.422;2023-05-08T12:08:21;72.05;;;66.95;;
5710;SDS011;61291;52.524;13.422;2023-05-08T12:10:50;84.30;;;78.50;;
5710;SDS011;61291;52.524;13.422;2023-05-08T12:15:46;75.95;;;70.05;;
5710;SDS011;61291;52.524;13.422;2023-05-08T12:18:13;83.83;;;78.13;;
5710;SDS011;61291;52.524;13.422;2023-05-08T12:20:39;85.37;;;79.03;;
5710;SDS011;61291;52.524;13.422;2023-05-08T12:23:05;87.27;;;81.70;;
5710;SDS011;61291;52.524;13.422;2023-05-08T12:25:31;84.50;;;78.80;;
5710;SDS011;61291;52.524;13.422;2023-05-08T12:27:57;83.33;;;77.50;;
5710;SDS011;61291;52.524;13.422;2023-05-08T12:30:23;79.17;;;73.77;;
5710;SDS011;61291;52.524;13.422;2023-05-08T12:32:49;78.50;;;73.20;;
5710;SDS011;61291;52.524;13.422;2023-05-08T12:35:15;81.57;;;75.40;;
5710;SDS011;61291;52.524;13.422;2023-05-08T12:37:41;77.30;;;71.60;;
5710;SDS011;61291;52.524;13.422;2023-05-08T12:40:21;79.30;;;73.80;;
5710;SDS011;61291;52.524;13.422;2023-05-08T12:43:01;83.03;;;76.60;;
5710;SDS011;61291;52.524;13.422;2023-05-08T12:45:28;83.03;;;76.97;;
5710;SDS011;61291;52.524;13.422;2023-05-08T12:47:59;82.93;;;76.90;;
5710;SDS011;61291;52.524;13.422;2023-05-08T12:50:26;83.17;;;77.20;;
5710;SDS011;61291;52.524;13.422;2023-05-08T12:52:54;80.27;;;74.90;;
5710;SDS011;61291;52.524;13.422;2023-05-08T12:55:27;77.50;;;72.33;;
5710;SDS011;61291;52.524;13.422;2023-05-08T12:58:03;85.33;;;79.67;;
5710;SDS011;61291;52.524;13.422;2023-05-08T13:00:47;79.60;;;74.30;;
5710;SDS011;61291;52.524;13.422;2023-05-08T13:05:49;75.83;;;70.70;;
5710;SDS011;61291;52.524;13.422;2023-05-08T13:08:15;74.90;;;69.70;;
5710;SDS011;61291;52.524;13.422;2023-05-08T13:10:44;76.03;;;70.10;;
5710;SDS011;61291;52.524;13.422;2023-05-08T13:13:14;74.93;;;69.63;;
5710;SDS011;61291;52.524;13.422;2023-05-08T13:15:41;74.20;;;68.70;;
5710;SDS011;61291;52.524;13.422;2023-05-08T13:18:06;76.07;;;71.10;;
5710;SDS011;61291;52.524;13.422;2023-05-08T13:20:33;73.03;;;68.17;;
5710;SDS011;61291;52.524;13.422;2023-05-08T13:22:59;73.63;;;68.43;;
5710;SDS011;61291;52.524;13.422;2023-05-08T13:25:24;71.17;;;66.07;;
5710;SDS011;61291;52.524;13.422;2023-05-08T13:27:50;66.67;;;61.57;;
5710;SDS011;61291;52.524;13.422;2023-05-08T13:30:15;69.97;;;64.90;;
5710;SDS011;61291;52.524;13.422;2023-05-08T13:32:41;82.43;;;74.30;;
5710;SDS011;61291;52.524;13.422;2023-05-08T13:35:07;76.67;;;71.33;;
5710;SDS011;61291;52.524;13.422;2023-05-08T13:37:33;76.30;;;71.20;;
5710;SDS011;61291;52.524;13.422;2023-05-08T13:39:58;74.47;;;68.77;;
5710;SDS011;61291;52.524;13.422;2023-05-08T13:42:24;80.90;;;75.57;;
5710;SDS011;61291;52.524;13.422;2023-05-08T13:44:49;82.60;;;76.63;;
5710;SDS011;61291;52.524;13.422;2023-05-08T13:47:15;77.57;;;72.20;;
5710;SDS011;61291;52.524;13.422;2023-05-08T13:49:40;80.20;;;74.67;;
5710;SDS011;61291;52.524;13.422;2023-05-08T13:52:08;79.93;;;74.37;;
5710;SDS011;61291;52.524;13.422;2023-05-08T13:54:33;71.73;;;66.17;;
5710;SDS011;61291;52.524;13.422;2023-05-08T13:56:58;74.73;;;69.53;;
5710;SDS011;61291;52.524;13.422;2023-05-08T13:59:26;72.53;;;67.47;;
5710;SDS011;61291;52.524;13.422;2023-05-08T14:01:52;72.80;;;67.93;;
5710;SDS011;61291;52.524;13.422;2023-05-08T14:04:18;84.73;;;79.23;;
5710;SDS011;61291;52.524;13.422;2023-05-08T14:06:43;65.93;;;61.37;;
5710;SDS011;61291;52.524;13.422;2023-05-08T14:09:09;71.80;;;66.80;;
5710;SDS011;61291;52.524;13.422;2023-05-08T14:11:34;67.37;;;62.63;;
5710;SDS011;61291;52.524;13.422;2023-05-08T14:14:00;70.47;;;65.77;;
5710;SDS011;61291;52.524;13.422;2023-05-08T14:16:25;76.97;;;72.07;;
5710;SDS011;61291;52.524;13.422;2023-05-08T14:18:52;70.23;;;65.50;;
5710;SDS011;61291;52.524;13.422;2023-05-08T14:21:17;71.43;;;66.63;;
5710;SDS011;61291;52.524;13.422;2023-05-08T14:23:43;74.50;;;69.57;;
5710;SDS011;61291;52.524;13.422;2023-05-08T14:26:09;74.30;;;69.30;;
5710;SDS011;61291;52.524;13.422;2023-05-08T14:28:34;71.93;;;66.97;;
5710;SDS011;61291;52.524;13.422;2023-05-08T14:30:59;74.07;;;69.17;;
5710;SDS011;61291;52.524;13.422;2023-05-08T14:33:25;76.23;;;70.33;;
5710;SDS011;61291;52.524;13.422;2023-05-08T14:35:51;69.20;;;64.40;;
5710;SDS011;61291;52.524;13.422;2023-05-08T14:38:16;69.47;;;64.87;;
5710;SDS011;61291;52.524;13.422;2023-05-08T14:40:42;73.43;;;67.03;;
5710;SDS011;61291;52.524;13.422;2023-05-08T14:43:07;66.33;;;61.30;;
5710;SDS011;61291;52.524;13.422;2023-05-08T14:45:33;63.90;;;59.23;;
5710;SDS011;61291;52.524;13.422;2023-05-08T14:47:59;68.00;;;62.97;;
5710;SDS011;61291;52.524;13.422;2023-05-08T14:50:24;63.87;;;59.33;;
5710;SDS011;61291;52.524;13.422;2023-05-08T14:52:51;63.87;;;59.50;;
5710;SDS011;61291;52.524;13.422;2023-05-08T14:55:17;59.13;;;54.42;;
5710;SDS011;61291;52.524;13.422;2023-05-08T14:57:44;65.30;;;60.97;;